Time;durP1;ratioP1;P1;durP2;ratioP2;P2;SDS_P1;SDS_P2;PMS_P1;PMS_P2;Temp;Humidity;BMP_temperature;BMP_pressure;BME280_temperature;BME280_humidity;BME280_pressure;Samples;Min_cycle;Max_cycle;Signal;HPM_P1;HPM_P2
2024/04/12 00:01:11;;;;;;;;;;;;;;;14.93;64.19;102370.22;5391999;26;20339;-91
2024/04/12 00:03:36;;;;;;;;;;;;;;;14.89;65.08;102374.72;5389608;26;19925;-90
2024/04/12 00:06:05;;;;;;;;;;;;;;;14.86;66.06;102379.22;5390232;26;19932;-92
2024/04/12 00:08:31;;;;;;;;;;;;;;;14.81;66.39;102375.94;5390749;26;19925;-90
2024/04/12 00:10:56;;;;;;;;;;;;;;;14.79;66.82;102377.75;5390061;26;20390;-90
2024/04/12 00:13:26;;;;;;;;;;;;;;;14.79;67.73;102377.75;5389249;26;19932;-92
2024/04/12 00:15:55;;;;;;;;;;;;;;;14.76;67.65;102372.69;5389648;26;19953;-92
2024/04/12 00:18:28;;;;;;;;;;;;;;;14.71;68.40;102369.38;5390427;26;19925;-93
2024/04/12 00:21:01;;;;;;;;;;;;;;;14.63;69.12;102373.13;5390827;26;19967;-92
2024/04/12 00:23:30;;;;;;;;;;;;;;;14.66;68.88;102366.13;5390405;26;19971;-93
2024/04/12 00:25:59;;;;;;;;;;;;;;;14.61;69.23;102369.72;5389621;26;19966;-93
2024/04/12 00:28:25;;;;;;;;;;;;;;;14.61;68.83;102364.53;5390547;26;19925;-91
2024/04/12 00:30:51;;;;;;;;;;;;;;;14.60;69.11;102364.59;5388873;26;20358;-91
2024/04/12 00:33:19;;;;;;;;;;;;;;;14.58;69.19;102369.84;5418277;26;19933;-91
2024/04/12 00:35:49;;;;;;;;;;;;;;;14.56;69.67;102366.47;5390488;26;20350;-92
2024/04/12 00:38:16;;;;;;;;;;;;;;;14.53;68.99;102369.16;5390096;26;19932;-92
2024/04/12 00:40:45;;;;;;;;;;;;;;;14.53;68.28;102363.97;5390470;26;19986;-91
2024/04/12 00:43:15;;;;;;;;;;;;;;;14.50;67.64;102377.09;5390088;26;19933;-91
2024/04/12 00:45:48;;;;;;;;;;;;;;;14.50;66.51;102364.09;5388950;26;19994;-93
2024/04/12 00:48:15;;;;;;;;;;;;;;;14.36;66.75;102368.94;5389556;26;19925;-91
2024/04/12 00:50:41;;;;;;;;;;;;;;;14.30;67.01;102369.16;5388718;26;19931;-90
2024/04/12 00:53:09;;;;;;;;;;;;;;;14.32;66.83;102367.34;5389821;26;19967;-90
2024/04/12 00:55:41;;;;;;;;;;;;;;;14.33;66.51;102366.44;5389830;26;19963;-94
2024/04/12 00:58:09;;;;;;;;;;;;;;;14.27;66.14;102364.91;5388543;26;19925;-92
2024/04/12 01:00:35;;;;;;;;;;;;;;;14.23;66.36;102362.47;5390199;26;19931;-90
2024/04/12 01:03:16;;;;;;;;;;;;;;;14.29;66.07;102368.31;5389526;26;19924;-92
2024/04/12 01:05:42;;;;;;;;;;;;;;;14.21;66.33;102362.53;5359619;26;19925;-92
2024/04/12 01:08:07;;;;;;;;;;;;;;;14.18;66.49;102364.41;5388778;26;19993;-91
2024/04/12 01:10:36;;;;;;;;;;;;;;;14.15;66.65;102360.13;5388515;26;19933;-93
2024/04/12 01:13:02;;;;;;;;;;;;;;;14.06;66.22;102360.50;5389472;26;20130;-91
2024/04/12 01:15:37;;;;;;;;;;;;;;;13.92;67.14;102355.78;5388453;26;19994;-90
2024/04/12 01:18:10;;;;;;;;;;;;;;;13.98;67.13;102355.56;5390737;26;19925;-90
2024/04/12 01:20:36;;;;;;;;;;;;;;;14.04;66.84;102357.06;5390131;26;19925;-90
2024/04/12 01:23:03;;;;;;;;;;;;;;;14.06;66.96;102356.16;5388366;26;19949;-90
2024/04/12 01:25:29;;;;;;;;;;;;;;;14.10;66.49;102359.47;5388927;26;19932;-91
2024/04/12 01:27:55;;;;;;;;;;;;;;;14.09;66.16;102360.38;5388360;26;20004;-93
2024/04/12 01:30:21;;;;;;;;;;;;;;;14.07;65.83;102362.19;5388269;26;19925;-91
2024/04/12 01:32:50;;;;;;;;;;;;;;;14.14;65.29;102371.47;5388206;26;19925;-92
2024/04/12 01:35:16;;;;;;;;;;;;;;;14.11;64.98;102362.91;5388842;26;19925;-91
2024/04/12 01:38:16;;;;;;;;;;;;;;;13.97;65.26;102369.47;5389737;26;19929;-92
2024/04/12 01:40:41;;;;;;;;;;;;;;;13.91;65.96;102363.63;5392370;26;19932;-93
2024/04/12 01:43:08;;;;;;;;;;;;;;;13.80;66.25;102368.38;5388140;26;19925;-92
2024/04/12 01:45:33;;;;;;;;;;;;;;;13.72;66.83;102364.28;5388319;26;19925;-91
2024/04/12 01:47:59;;;;;;;;;;;;;;;13.64;66.56;102368.03;5388798;26;19994;-91
2024/04/12 01:50:26;;;;;;;;;;;;;;;13.58;67.21;102365.66;5387849;26;19932;-90
2024/04/12 01:52:55;;;;;;;;;;;;;;;13.60;66.96;102367.28;5388229;26;20339;-91
2024/04/12 01:55:21;;;;;;;;;;;;;;;13.61;67.06;102362.94;5388587;26;19925;-90
2024/04/12 01:57:47;;;;;;;;;;;;;;;13.59;66.87;102364.75;5388095;26;20376;-91
2024/04/12 02:00:16;;;;;;;;;;;;;;;13.57;67.04;102356.13;5387654;26;20391;-91
2024/04/12 02:02:42;;;;;;;;;;;;;;;13.55;67.16;102363.13;5388350;26;19933;-92
2024/04/12 02:05:09;;;;;;;;;;;;;;;13.55;67.46;102358.78;5388107;26;19932;-92
2024/04/12 02:07:39;;;;;;;;;;;;;;;13.56;67.27;102362.22;5387963;26;19957;-92
2024/04/12 02:10:11;;;;;;;;;;;;;;;13.56;67.63;102365.69;5388542;26;20334;-90
2024/04/12 02:12:36;;;;;;;;;;;;;;;13.59;67.38;102369.94;5388156;26;19925;-92
2024/04/12 02:15:19;;;;;;;;;;;;;;;13.69;67.55;102373.94;5387410;26;20311;-91
2024/04/12 02:17:46;;;;;;;;;;;;;;;13.69;67.15;102372.19;5390718;26;19924;-91
2024/04/12 02:20:19;;;;;;;;;;;;;;;13.65;67.29;102369.72;5387483;26;19925;-90
2024/04/12 02:22:45;;;;;;;;;;;;;;;13.71;67.14;102382.53;5389017;26;19931;-91
2024/04/12 02:25:13;;;;;;;;;;;;;;;13.67;66.94;102378.34;5387641;26;19925;-92
2024/04/12 02:27:38;;;;;;;;;;;;;;;13.65;67.49;102380.13;5387383;26;19937;-92
2024/04/12 02:30:04;;;;;;;;;;;;;;;13.68;67.61;102382.66;5387480;26;20414;-91
2024/04/12 02:32:30;;;;;;;;;;;;;;;13.66;67.75;102374.03;5387444;26;19931;-93
2024/04/12 02:34:55;;;;;;;;;;;;;;;13.62;67.96;102381.09;5387336;26;19925;-90
2024/04/12 02:37:21;;;;;;;;;;;;;;;13.59;68.06;102380.34;5387141;26;19993;-90
2024/04/12 02:39:47;;;;;;;;;;;;;;;13.58;68.17;102376.91;5387108;26;19932;-91
2024/04/12 02:42:17;;;;;;;;;;;;;;;13.59;68.04;102380.34;5387374;26;20231;-92
2024/04/12 02:44:45;;;;;;;;;;;;;;;13.61;68.32;102379.41;5388186;26;19925;-91
2024/04/12 02:47:14;;;;;;;;;;;;;;;13.64;68.41;102378.44;5387494;26;19925;-90
2024/04/12 02:49:40;;;;;;;;;;;;;;;13.59;68.71;102377.75;5358899;26;20346;-91
2024/04/12 02:52:05;;;;;;;;;;;;;;;13.61;68.56;102382.00;5387064;26;19936;-92
2024/04/12 02:54:31;;;;;;;;;;;;;;;13.58;68.74;102384.72;5385959;26;20346;-89
2024/04/12 02:56:56;;;;;;;;;;;;;;;13.59;68.59;102381.22;5385752;26;19925;-91
2024/04/12 02:59:22;;;;;;;;;;;;;;;13.58;68.54;102378.66;5356664;26;19933;-88
2024/04/12 03:01:47;;;;;;;;;;;;;;;13.59;68.71;102385.56;5415010;26;19932;-88
2024/04/12 03:04:12;;;;;;;;;;;;;;;13.60;68.63;102379.44;5385112;26;19952;-88
2024/04/12 03:06:38;;;;;;;;;;;;;;;13.61;69.19;102383.75;5414458;26;20396;-88
2024/04/12 03:09:05;;;;;;;;;;;;;;;13.62;68.96;102385.44;5355931;26;20296;-88
2024/04/12 03:11:33;;;;;;;;;;;;;;;13.62;68.66;102388.03;5385330;26;19994;-90
2024/04/12 03:14:09;;;;;;;;;;;;;;;13.60;68.58;102384.66;5416814;26;20362;-87
2024/04/12 03:16:34;;;;;;;;;;;;;;;13.57;68.80;102388.22;5388253;26;19933;-89
2024/04/12 03:19:02;;;;;;;;;;;;;;;13.54;68.79;102387.44;5388019;26;19929;-87
2024/04/12 03:21:27;;;;;;;;;;;;;;;13.56;68.58;102386.50;5359281;26;19925;-88
2024/04/12 03:23:53;;;;;;;;;;;;;;;13.54;69.02;102392.66;5359183;26;20358;-87
2024/04/12 03:26:18;;;;;;;;;;;;;;;13.43;69.33;102396.44;5388856;26;19933;-89
2024/04/12 03:28:47;;;;;;;;;;;;;;;13.39;69.62;102394.88;5388738;26;19932;-88
2024/04/12 03:31:12;;;;;;;;;;;;;;;13.40;70.09;102398.31;5388951;26;19965;-88
2024/04/12 03:33:44;;;;;;;;;;;;;;;13.35;70.35;102405.41;5388340;26;20339;-88
2024/04/12 03:41:43;;;;;;;;;;;;;;;13.39;70.29;102407.00;5395165;26;19959;-90
2024/04/12 03:44:09;;;;;;;;;;;;;;;13.39;70.48;102407.00;5389126;26;19925;-88
2024/04/12 03:46:35;;;;;;;;;;;;;;;13.35;70.45;102414.03;5411807;26;19931;-87
2024/04/12 03:49:01;;;;;;;;;;;;;;;13.33;70.89;102415.84;5387447;26;19925;-88
2024/04/12 03:51:27;;;;;;;;;;;;;;;13.37;70.68;102407.06;5388453;26;19925;-91
2024/04/12 03:54:10;;;;;;;;;;;;;;;13.39;71.37;102410.47;5388419;26;20354;-88
2024/04/12 03:56:36;;;;;;;;;;;;;;;13.43;71.38;102409.44;5391959;26;19925;-89
2024/04/12 03:59:02;;;;;;;;;;;;;;;13.48;70.83;102410.16;5388083;26;20282;-89
2024/04/12 04:01:31;;;;;;;;;;;;;;;13.51;70.99;102413.56;5357831;26;19925;-90
2024/04/12 04:03:57;;;;;;;;;;;;;;;13.58;70.88;102415.06;5388747;26;19937;-92
2024/04/12 04:06:23;;;;;;;;;;;;;;;13.80;70.04;102416.03;5387848;26;19932;-91
2024/04/12 04:08:48;;;;;;;;;;;;;;;13.81;70.23;102411.69;5417859;26;19925;-90
2024/04/12 04:11:16;;;;;;;;;;;;;;;13.82;69.94;102419.44;5379352;26;19925;-90
2024/04/12 04:13:44;;;;;;;;;;;;;;;13.82;69.60;102415.97;5387351;26;19971;-89
2024/04/12 04:16:10;;;;;;;;;;;;;;;13.90;69.40;102419.19;5386261;26;19925;-89
2024/04/12 04:18:35;;;;;;;;;;;;;;;13.87;69.55;102422.75;5418943;26;19929;-89
2024/04/12 04:21:07;;;;;;;;;;;;;;;13.95;69.78;102419.84;5384079;26;20374;-88
2024/04/12 04:23:38;;;;;;;;;;;;;;;13.95;69.67;102427.66;5374656;26;19926;-91
2024/04/12 04:26:08;;;;;;;;;;;;;;;14.03;69.60;102423.03;5380512;26;19925;-89
2024/04/12 04:28:37;;;;;;;;;;;;;;;14.04;69.89;102430.78;5381756;26;19925;-89
2024/04/12 04:31:08;;;;;;;;;;;;;;;14.07;69.62;102425.50;5380509;26;19930;-85
2024/04/12 04:33:34;;;;;;;;;;;;;;;14.09;69.74;102433.25;5365653;26;19933;-92
2024/04/12 04:36:08;;;;;;;;;;;;;;;14.16;70.03;102429.53;5356100;26;19930;-94
2024/04/12 04:38:36;;;;;;;;;;;;;;;14.17;69.89;102436.44;5347557;26;19926;-92
2024/04/12 04:41:06;;;;;;;;;;;;;;;14.19;70.08;102437.22;5367613;26;19953;-88
2024/04/12 04:43:32;;;;;;;;;;;;;;;14.21;70.39;102431.97;5380960;26;19937;-83
2024/04/12 04:46:09;;;;;;;;;;;;;;;14.25;70.26;102439.59;5381156;26;19925;-85
2024/04/12 04:48:35;;;;;;;;;;;;;;;14.32;69.99;102440.25;5372595;26;20294;-85
2024/04/12 04:51:01;;;;;;;;;;;;;;;14.33;69.70;102444.53;5381229;26;19932;-92
2024/04/12 04:53:29;;;;;;;;;;;;;;;14.37;70.50;102443.53;5382841;26;19932;-80
2024/04/12 04:56:00;;;;;;;;;;;;;;;14.44;69.80;102436.34;5386003;26;19933;-91
2024/04/12 04:58:28;;;;;;;;;;;;;;;14.51;69.04;102445.66;5369989;26;20008;-91
2024/04/12 05:00:53;;;;;;;;;;;;;;;14.57;69.05;102443.69;5378234;26;20301;-84
2024/04/12 05:03:19;;;;;;;;;;;;;;;14.67;69.05;102446.81;5377715;26;19933;-87
2024/04/12 05:05:49;;;;;;;;;;;;;;;14.72;68.46;102454.44;5365410;26;20322;-83
2024/04/12 05:08:16;;;;;;;;;;;;;;;14.72;68.78;102454.44;5408944;26;19953;-86
2024/04/12 05:10:42;;;;;;;;;;;;;;;14.75;67.84;102454.31;5349097;26;20252;-86
2024/04/12 05:13:07;;;;;;;;;;;;;;;14.80;67.84;102455.00;5371438;26;19925;-86
2024/04/12 05:18:08;;;;;;;;;;;;;;;14.96;68.08;102458.75;5381457;26;19932;-85
2024/04/12 05:20:40;;;;;;;;;;;;;;;15.03;67.30;102454.97;5380147;26;19932;-90
2024/04/12 05:23:12;;;;;;;;;;;;;;;15.07;67.06;102456.56;5380574;26;19941;-91
2024/04/12 05:25:40;;;;;;;;;;;;;;;15.18;66.79;102454.41;5371724;26;20534;-90
2024/04/12 05:28:06;;;;;;;;;;;;;;;15.31;66.87;102454.75;5359229;26;19933;-90
2024/04/12 05:30:36;;;;;;;;;;;;;;;15.35;66.64;102455.50;5381602;26;19925;-93
2024/04/12 05:33:05;;;;;;;;;;;;;;;15.55;65.47;102457.31;5380647;26;19936;-88
2024/04/12 05:35:34;;;;;;;;;;;;;;;15.57;65.51;102453.72;5377305;26;19933;-86
2024/04/12 05:38:09;;;;;;;;;;;;;;;15.67;65.24;102446.38;5378099;26;19994;-85
2024/04/12 05:40:42;;;;;;;;;;;;;;;15.73;64.90;102448.72;5379043;26;19926;-86
2024/04/12 05:43:16;;;;;;;;;;;;;;;15.81;64.81;102454.47;5379234;26;19932;-86
2024/04/12 05:45:41;;;;;;;;;;;;;;;15.91;63.99;102453.19;5379800;26;19925;-87
2024/04/12 05:48:13;;;;;;;;;;;;;;;16.08;63.68;102452.47;5381664;26;20692;-87
2024/04/12 05:50:39;;;;;;;;;;;;;;;16.09;63.99;102459.38;5380246;26;20048;-83
2024/04/12 05:53:05;;;;;;;;;;;;;;;16.18;63.85;102452.91;5380009;26;19937;-87
2024/04/12 05:55:31;;;;;;;;;;;;;;;16.32;63.49;102454.03;5379794;26;19925;-88
2024/04/12 05:58:00;;;;;;;;;;;;;;;16.39;63.64;102451.13;5371463;26;19933;-86
2024/04/12 06:00:25;;;;;;;;;;;;;;;16.51;63.04;102447.97;5379161;26;19953;-84
2024/04/12 06:02:51;;;;;;;;;;;;;;;16.61;63.27;102441.41;5377844;26;19926;-84
2024/04/12 06:05:18;;;;;;;;;;;;;;;16.67;63.20;102446.34;5378573;26;19948;-93
2024/04/12 06:07:47;;;;;;;;;;;;;;;16.77;62.65;102442.44;5379765;26;19933;-89
2024/04/12 06:10:13;;;;;;;;;;;;;;;16.82;62.46;102444.84;5387463;26;19925;-93
2024/04/12 06:12:41;;;;;;;;;;;;;;;16.89;61.95;102441.84;5383356;26;19926;-92
2024/04/12 06:15:08;;;;;;;;;;;;;;;16.99;61.70;102436.19;5381603;26;19925;-87
2024/04/12 06:17:34;;;;;;;;;;;;;;;17.11;61.28;102438.25;5380021;26;19932;-91
2024/04/12 06:20:00;;;;;;;;;;;;;;;17.25;60.92;102437.59;5377890;26;19937;-89
2024/04/12 06:22:31;;;;;;;;;;;;;;;17.37;61.36;102436.97;5347472;26;19932;-87
2024/04/12 06:25:01;;;;;;;;;;;;;;;17.44;61.50;102439.22;5379846;26;19967;-85
2024/04/12 06:27:29;;;;;;;;;;;;;;;17.54;61.19;102429.16;5370137;26;19933;-89
2024/04/12 06:30:00;;;;;;;;;;;;;;;17.68;61.39;102431.06;5359248;26;19925;-92
2024/04/12 06:32:26;;;;;;;;;;;;;;;17.75;61.00;102432.50;5379681;26;19933;-90
2024/04/12 06:34:52;;;;;;;;;;;;;;;17.87;61.23;102429.25;5381868;26;19925;-93
2024/04/12 06:37:21;;;;;;;;;;;;;;;17.99;60.41;102425.16;5350919;26;20350;-87
2024/04/12 06:39:47;;;;;;;;;;;;;;;18.12;60.91;102422.78;5379400;26;19925;-85
2024/04/12 06:42:14;;;;;;;;;;;;;;;18.26;60.80;102426.34;5382290;26;19987;-93
2024/04/12 06:44:42;;;;;;;;;;;;;;;18.49;60.76;102434.78;5381035;26;19931;-91
2024/04/12 06:47:09;;;;;;;;;;;;;;;18.56;60.26;102429.09;5409777;26;19925;-94
2024/04/12 06:49:37;;;;;;;;;;;;;;;18.71;59.76;102431.88;5381271;26;19926;-94
2024/04/12 06:52:09;;;;;;;;;;;;;;;18.81;59.76;102431.28;5375114;26;20335;-85
2024/04/12 06:54:40;;;;;;;;;;;;;;;18.95;59.39;102430.50;5378988;26;20274;-88
2024/04/12 06:57:06;;;;;;;;;;;;;;;19.11;59.24;102428.72;5379961;26;19973;-90
2024/04/12 06:59:35;;;;;;;;;;;;;;;19.26;58.23;102426.16;5370735;26;20060;-91
2024/04/12 07:02:13;;;;;;;;;;;;;;;19.36;58.20;102428.16;5330235;26;19961;-93
2024/04/12 07:04:39;;;;;;;;;;;;;;;19.51;57.89;102423.81;5376950;26;19926;-82
2024/04/12 07:07:05;;;;;;;;;;;;;;;19.65;57.63;102431.75;5380331;26;19932;-85
2024/04/12 07:09:31;;;;;;;;;;;;;;;19.81;58.22;102431.72;5379147;26;20005;-94
2024/04/12 07:11:57;;;;;;;;;;;;;;;19.92;56.37;102431.06;5406148;26;20338;-85
2024/04/12 07:14:23;;;;;;;;;;;;;;;20.03;56.19;102433.91;5376422;26;19931;-86
2024/04/12 07:16:53;;;;;;;;;;;;;;;20.11;55.73;102439.53;5374466;26;20239;-93
2024/04/12 07:19:23;;;;;;;;;;;;;;;20.25;55.45;102431.66;5385015;26;19954;-92
2024/04/12 07:21:54;;;;;;;;;;;;;;;20.38;55.48;102429.13;5386715;26;20057;-91
2024/04/12 07:24:22;;;;;;;;;;;;;;;20.49;54.22;102428.50;5414874;26;19924;-93
2024/04/12 07:26:48;;;;;;;;;;;;;;;20.61;54.42;102427.72;5383685;26;19945;-92
2024/04/12 07:29:13;;;;;;;;;;;;;;;20.84;56.59;102426.25;5379075;26;19926;-95
2024/04/12 07:31:38;;;;;;;;;;;;;;;20.99;54.63;102422.66;5386283;26;19937;-94
2024/04/12 07:34:05;;;;;;;;;;;;;;;21.14;52.60;102413.78;5383896;26;19953;-90
2024/04/12 07:36:30;;;;;;;;;;;;;;;21.33;53.16;102423.94;5380554;26;19926;-93
2024/04/12 07:39:01;;;;;;;;;;;;;;;21.50;53.56;102424.63;5383240;26;19925;-87
2024/04/12 07:41:31;;;;;;;;;;;;;;;21.48;51.90;102417.69;5382651;26;19926;-92
2024/04/12 07:43:56;;;;;;;;;;;;;;;21.55;52.28;102422.56;5414957;26;19925;-90
2024/04/12 07:46:27;;;;;;;;;;;;;;;21.71;51.69;102423.19;5389815;26;19932;-93
2024/04/12 07:48:57;;;;;;;;;;;;;;;21.85;51.75;102415.22;5384236;26;19931;-93
2024/04/12 07:51:27;;;;;;;;;;;;;;;21.97;51.38;102416.16;5377730;26;20328;-93
2024/04/12 07:53:53;;;;;;;;;;;;;;;22.14;51.52;102409.75;5375200;26;19925;-92
2024/04/12 07:56:21;;;;;;;;;;;;;;;22.28;49.83;102406.97;5379485;26;19933;-92
2024/04/12 07:59:01;;;;;;;;;;;;;;;22.44;50.12;102401.47;5381761;26;20485;-91
2024/04/12 08:01:26;;;;;;;;;;;;;;;22.53;48.91;102396.38;5418163;26;19917;-87
2024/04/12 08:04:05;;;;;;;;;;;;;;;22.56;49.78;102395.31;5388146;26;19994;-90
2024/04/12 08:06:37;;;;;;;;;;;;;;;22.43;49.32;102398.00;5380888;26;19961;-90
2024/04/12 08:09:06;;;;;;;;;;;;;;;22.66;49.50;102395.50;5381808;26;19945;-89
2024/04/12 08:11:34;;;;;;;;;;;;;;;22.74;49.08;102393.16;5414710;26;19932;-93
2024/04/12 08:14:05;;;;;;;;;;;;;;;22.89;48.93;102387.63;5389120;26;19925;-88
2024/04/12 08:16:46;;;;;;;;;;;;;;;23.04;48.77;102385.66;5383137;26;19949;-87
2024/04/12 08:19:21;;;;;;;;;;;;;;;23.25;48.96;102382.38;5364742;26;20040;-86
2024/04/12 08:21:47;;;;;;;;;;;;;;;23.44;47.48;102385.31;5387606;26;19924;-87
2024/04/12 08:24:22;;;;;;;;;;;;;;;23.43;47.00;102381.00;5417557;26;20366;-87
2024/04/12 08:26:47;;;;;;;;;;;;;;;23.57;46.34;102383.41;5388866;26;19924;-91
2024/04/12 08:29:28;;;;;;;;;;;;;;;23.64;46.81;102374.09;5424586;26;19932;-92
2024/04/12 08:32:11;;;;;;;;;;;;;;;23.75;46.12;102382.03;5390146;26;19990;-90
2024/04/12 08:34:45;;;;;;;;;;;;;;;23.93;47.21;102378.94;5393314;26;19931;-84
2024/04/12 08:37:14;;;;;;;;;;;;;;;24.11;45.89;102376.69;5387905;26;19925;-90
2024/04/12 08:39:46;;;;;;;;;;;;;;;24.17;44.63;102370.88;5386994;26;20242;-90
2024/04/12 08:42:14;;;;;;;;;;;;;;;24.29;44.70;102370.78;5375643;26;19926;-89
2024/04/12 08:44:40;;;;;;;;;;;;;;;24.38;44.07;102374.50;5350963;26;19932;-89
2024/04/12 08:50:07;;;;;;;;;;;;;;;24.13;44.00;102367.66;5297113;27;20356;-86
2024/04/12 08:52:34;;;;;;;;;;;;;;;23.99;44.51;102362.59;5333920;26;19932;-82
2024/04/12 08:55:01;;;;;;;;;;;;;;;24.26;44.20;102357.78;5381796;26;19933;-82
2024/04/12 08:57:26;;;;;;;;;;;;;;;24.42;44.07;102353.94;5350738;26;19987;-83
2024/04/12 08:59:52;;;;;;;;;;;;;;;24.55;44.41;102347.53;5351199;26;19929;-87
2024/04/12 09:02:20;;;;;;;;;;;;;;;24.69;43.47;102349.06;5352635;26;20338;-86
2024/04/12 09:04:46;;;;;;;;;;;;;;;24.82;44.39;102347.09;5411993;26;19925;-91
2024/04/12 09:07:12;;;;;;;;;;;;;;;24.92;43.26;102347.16;5416065;26;20015;-88
2024/04/12 09:09:37;;;;;;;;;;;;;;;25.06;43.09;102335.44;5385401;26;19931;-88
2024/04/12 09:12:04;;;;;;;;;;;;;;;25.20;42.87;102340.44;5365922;26;19925;-91
2024/04/12 09:14:29;;;;;;;;;;;;;;;25.37;42.43;102333.75;5352505;26;19925;-91
2024/04/12 09:17:00;;;;;;;;;;;;;;;25.45;41.71;102329.44;5411138;26;20610;-89
2024/04/12 09:19:28;;;;;;;;;;;;;;;25.62;41.13;102329.81;5386874;26;19925;-90
2024/04/12 09:22:09;;;;;;;;;;;;;;;25.75;40.88;102325.16;5385928;26;19925;-91
2024/04/12 09:24:39;;;;;;;;;;;;;;;25.93;40.45;102331.50;5416250;26;19925;-92
2024/04/12 09:27:09;;;;;;;;;;;;;;;25.81;40.47;102321.97;5385926;26;19925;-86
2024/04/12 09:29:43;;;;;;;;;;;;;;;25.77;40.53;102323.25;5383078;26;19924;-89
2024/04/12 09:34:55;;;;;;;;;;;;;;;26.25;39.54;102317.22;5389074;26;20258;-87
2024/04/12 09:37:30;;;;;;;;;;;;;;;26.05;39.38;102315.50;5386052;26;20013;-91
2024/04/12 09:45:21;;;;;;;;;;;;;;;26.25;39.43;102311.91;5390454;26;19936;-84
2024/04/12 10:37:51;;;;;;;;;;;;;;;28.03;34.59;102267.06;5389819;26;19931;-88
2024/04/12 10:40:09;;;;;;;;;;;;;;;28.09;33.36;102258.47;5388355;26;19925;-87
2024/04/12 10:42:35;;;;;;;;;;;;;;;28.07;33.65;102253.31;5414393;26;20017;-88
2024/04/12 10:45:07;;;;;;;;;;;;;;;27.84;32.74;102257.38;5415184;26;20347;-88
2024/04/12 10:47:37;;;;;;;;;;;;;;;28.05;32.78;102252.63;5384175;26;19936;-87
2024/04/12 10:50:03;;;;;;;;;;;;;;;28.16;33.70;102260.38;5362589;26;19926;-88
2024/04/12 10:52:29;;;;;;;;;;;;;;;28.45;32.81;102248.72;5371279;26;20293;-87
2024/04/12 10:54:58;;;;;;;;;;;;;;;28.62;32.41;102245.22;5384857;26;19933;-85
2024/04/12 10:57:24;;;;;;;;;;;;;;;28.69;32.43;102238.25;5384913;26;19933;-92
2024/04/12 10:59:51;;;;;;;;;;;;;;;28.58;32.23;102236.66;5385329;26;19936;-90
2024/04/12 11:02:17;;;;;;;;;;;;;;;28.66;32.76;102227.09;5385888;26;19957;-89
2024/04/12 11:07:26;;;;;;;;;;;;;;;28.70;32.69;102231.94;5415589;26;19935;-86
2024/04/12 11:10:03;;;;;;;;;;;;;;;28.75;32.45;102234.97;5384624;26;20343;-93
2024/04/12 11:12:29;;;;;;;;;;;;;;;28.64;33.13;102229.91;5382150;26;20251;-84
2024/04/12 11:15:13;;;;;;;;;;;;;;;28.86;32.53;102221.41;5355524;26;19932;-90
2024/04/12 11:31:19;;;;;;;;;;;;;;;29.04;32.00;102205.41;5388533;26;19931;-91
2024/04/12 11:33:54;;;;;;;;;;;;;;;29.14;32.10;102199.97;5384833;26;19925;-86
2024/04/12 11:36:21;;;;;;;;;;;;;;;29.23;32.20;102201.66;5388321;26;19925;-83
2024/04/12 11:38:47;;;;;;;;;;;;;;;29.11;31.81;102200.28;5387695;26;19932;-84
2024/04/12 11:41:15;;;;;;;;;;;;;;;29.06;32.45;102191.91;5384985;26;19933;-91
2024/04/12 11:43:47;;;;;;;;;;;;;;;29.26;32.73;102184.53;5389180;26;19932;-87
2024/04/12 11:46:16;;;;;;;;;;;;;;;29.16;31.77;102192.63;5418378;26;19997;-86
2024/04/12 11:48:42;;;;;;;;;;;;;;;29.06;31.59;102183.91;5388383;26;19931;-86
2024/04/12 11:51:15;;;;;;;;;;;;;;;29.07;32.00;102181.09;5360323;26;19925;-85
2024/04/12 11:53:42;;;;;;;;;;;;;;;29.13;31.90;102175.13;5353762;26;19925;-86
2024/04/12 11:56:09;;;;;;;;;;;;;;;29.04;30.21;102175.25;5352670;26;19943;-91
2024/04/12 11:58:35;;;;;;;;;;;;;;;29.32;30.16;102163.41;5353085;26;19933;-91
2024/04/12 12:01:04;;;;;;;;;;;;;;;29.53;30.82;102164.81;5342884;26;20282;-91
2024/04/12 12:03:30;;;;;;;;;;;;;;;29.23;30.83;102164.34;5387718;26;19925;-90
2024/04/12 12:05:57;;;;;;;;;;;;;;;29.24;31.59;102160.69;5384919;26;19994;-87
2024/04/12 12:08:31;;;;;;;;;;;;;;;29.31;32.06;102164.41;5387082;26;19925;-83
2024/04/12 12:10:57;;;;;;;;;;;;;;;29.52;31.52;102157.81;5388139;26;19932;-94
2024/04/12 12:13:22;;;;;;;;;;;;;;;29.53;31.24;102152.34;5385332;26;19925;-90
2024/04/12 12:15:51;;;;;;;;;;;;;;;29.31;32.44;102156.41;5397610;26;20375;-89
2024/04/12 12:18:17;;;;;;;;;;;;;;;29.33;31.44;102149.06;5381508;26;19925;-91
2024/04/12 12:20:46;;;;;;;;;;;;;;;29.49;31.78;102142.13;5381430;26;19958;-88
2024/04/12 12:23:11;;;;;;;;;;;;;;;29.57;32.39;102136.81;5385617;26;19925;-91
2024/04/12 12:25:38;;;;;;;;;;;;;;;29.63;31.90;102133.53;5361020;26;19925;-88
2024/04/12 12:28:04;;;;;;;;;;;;;;;29.67;31.92;102129.50;5417663;26;19983;-83
2024/04/12 12:30:33;;;;;;;;;;;;;;;29.53;32.46;102128.34;5387195;26;20354;-85
2024/04/12 12:32:59;;;;;;;;;;;;;;;29.69;32.37;102119.50;5385678;26;19929;-84
2024/04/12 12:35:24;;;;;;;;;;;;;;;29.97;31.53;102117.38;5383880;26;19925;-84
2024/04/12 12:37:50;;;;;;;;;;;;;;;30.16;31.82;102117.06;5383725;26;19932;-84
2024/04/12 12:40:18;;;;;;;;;;;;;;;30.15;31.76;102106.56;5357553;26;20384;-83
2024/04/12 12:42:47;;;;;;;;;;;;;;;30.17;31.79;102115.25;5386040;26;19925;-82
2024/04/12 12:45:16;;;;;;;;;;;;;;;29.85;31.95;102098.19;5386742;26;19932;-84
2024/04/12 12:47:42;;;;;;;;;;;;;;;29.58;31.13;102101.16;5385518;26;19936;-87
2024/04/12 12:50:19;;;;;;;;;;;;;;;29.52;31.90;102099.16;5386290;26;19932;-83
2024/04/12 12:52:49;;;;;;;;;;;;;;;29.58;31.80;102096.66;5389489;26;19931;-84
2024/04/12 12:55:15;;;;;;;;;;;;;;;29.66;32.50;102095.84;5387981;26;20245;-85
2024/04/12 12:57:44;;;;;;;;;;;;;;;29.52;33.08;102088.50;5417201;26;19925;-84
2024/04/12 13:00:18;;;;;;;;;;;;;;;29.33;32.68;102085.09;5387329;26;19932;-83
2024/04/12 13:02:44;;;;;;;;;;;;;;;29.08;33.52;102080.69;5417515;26;19947;-82
2024/04/12 13:05:14;;;;;;;;;;;;;;;29.04;33.67;102082.84;5417720;26;19937;-83
2024/04/12 13:07:39;;;;;;;;;;;;;;;29.02;33.64;102071.50;5417923;26;19932;-86
2024/04/12 13:10:12;;;;;;;;;;;;;;;29.00;34.42;102076.16;5384322;26;19957;-85
2024/04/12 13:12:38;;;;;;;;;;;;;;;29.02;34.15;102062.69;5387324;26;19961;-88
2024/04/12 13:15:04;;;;;;;;;;;;;;;28.86;34.30;102058.94;5386574;26;19925;-91
2024/04/12 13:17:36;;;;;;;;;;;;;;;28.94;33.59;102058.16;5357398;26;19925;-91
2024/04/12 13:20:05;;;;;;;;;;;;;;;28.91;33.17;102052.31;5388581;26;19932;-92
2024/04/12 13:22:32;;;;;;;;;;;;;;;28.91;32.35;102050.50;5387547;26;19925;-89
2024/04/12 13:24:57;;;;;;;;;;;;;;;28.94;33.29;102046.66;5386579;26;19925;-84
2024/04/12 13:27:23;;;;;;;;;;;;;;;28.96;33.41;102047.34;5386310;26;20358;-91
2024/04/12 13:29:49;;;;;;;;;;;;;;;28.87;34.44;102027.78;5386425;26;19932;-91
2024/04/12 13:32:14;;;;;;;;;;;;;;;28.91;34.33;102036.31;5418267;26;20250;-88
2024/04/12 13:34:39;;;;;;;;;;;;;;;28.94;34.59;102036.84;5416725;26;19998;-87
2024/04/12 13:37:08;;;;;;;;;;;;;;;28.94;34.59;102031.53;5379873;26;19994;-87
2024/04/12 13:39:36;;;;;;;;;;;;;;;28.85;34.75;102035.94;5380187;26;20049;-89
2024/04/12 13:42:03;;;;;;;;;;;;;;;28.85;34.68;102030.63;5372820;26;19926;-90
2024/04/12 13:52:42;;;;;;;;;;;;;;;28.65;34.60;102031.88;5389825;26;19932;-83
2024/04/12 13:55:10;;;;;;;;;;;;;;;28.67;35.23;102027.22;5385965;26;19937;-86
2024/04/12 13:57:38;;;;;;;;;;;;;;;28.56;34.30;102028.34;5386080;26;19932;-86
2024/04/12 14:00:09;;;;;;;;;;;;;;;28.42;34.59;102025.44;5386651;26;19932;-83
2024/04/12 14:02:35;;;;;;;;;;;;;;;28.40;35.08;102011.44;5387600;26;19931;-85
2024/04/12 14:05:02;;;;;;;;;;;;;;;28.40;35.26;102016.75;5386049;26;20405;-84
2024/04/12 14:07:33;;;;;;;;;;;;;;;28.38;35.64;102008.09;5386428;26;19994;-84
2024/04/12 14:10:01;;;;;;;;;;;;;;;28.43;34.69;102011.97;5357777;26;19924;-84
2024/04/12 14:12:27;;;;;;;;;;;;;;;28.43;35.10;102011.13;5357284;26;19925;-85
2024/04/12 14:14:52;;;;;;;;;;;;;;;28.41;34.18;102003.28;5385742;26;19924;-84